createdAt,value
2023-04-14T00:02:07.962Z,76.48
2023-04-14T00:04:35.190Z,76.63
2023-04-14T00:07:02.523Z,76.37
2023-04-14T00:09:30.511Z,76.42
2023-04-14T00:11:57.835Z,76.53
2023-04-14T00:14:25.015Z,76.83
2023-04-14T00:16:51.921Z,76.85
2023-04-14T00:19:18.885Z,76.38
2023-04-14T00:21:46.152Z,76.42
2023-04-14T00:24:13.089Z,76.68
2023-04-14T00:26:40.026Z,77.12
2023-04-14T00:29:06.864Z,76.89
2023-04-14T00:31:33.868Z,76.94
2023-04-14T00:34:00.902Z,76.82
2023-04-14T00:36:28.359Z,76.38
2023-04-14T00:38:55.590Z,75.64
2023-04-14T00:41:22.593Z,75.59
2023-04-14T00:43:52.784Z,75.73
2023-04-14T00:46:19.846Z,75.80
2023-04-14T00:48:46.899Z,76.38
2023-04-14T00:51:13.885Z,76.33
2023-04-14T00:53:41.145Z,76.56
2023-04-14T00:56:08.643Z,76.87
2023-04-14T00:58:36.175Z,77.00
2023-04-14T01:01:03.097Z,77.00
2023-04-14T01:03:30.335Z,77.29
2023-04-14T01:05:57.657Z,77.01
2023-04-14T01:08:24.699Z,76.90
2023-04-14T01:11:14.408Z,76.67
2023-04-14T01:13:47.228Z,76.69
2023-04-14T01:16:29.700Z,76.60
2023-04-14T01:19:07.400Z,76.27
2023-04-14T01:21:37.529Z,77.24
2023-04-14T01:24:16.692Z,77.58
2023-04-14T01:26:44.209Z,77.77
2023-04-14T01:29:35.474Z,77.19
2023-04-14T01:32:05.883Z,77.32
2023-04-14T01:35:01.149Z,77.74
2023-04-14T01:37:31.016Z,77.78
2023-04-14T01:40:04.008Z,77.84
2023-04-14T01:42:33.736Z,77.86
2023-04-14T01:45:26.375Z,77.75
2023-04-14T01:47:53.438Z,77.51
2023-04-14T01:50:20.511Z,77.65
2023-04-14T01:52:51.861Z,77.56
2023-04-14T01:55:19.312Z,77.73
2023-04-14T01:57:47.153Z,77.72
2023-04-14T02:00:14.534Z,78.10
2023-04-14T02:02:43.440Z,78.11
2023-04-14T02:05:10.538Z,78.56
2023-04-14T02:07:37.369Z,78.55
2023-04-14T02:10:06.192Z,77.72
2023-04-14T02:12:33.809Z,78.05
2023-04-14T02:15:01.348Z,78.00
2023-04-14T02:17:28.584Z,77.72
2023-04-14T02:19:55.958Z,78.45
2023-04-14T02:22:22.908Z,78.06
2023-04-14T02:24:49.969Z,78.55
2023-04-14T02:27:19.144Z,77.79
2023-04-14T02:29:49.076Z,78.36
2023-04-14T02:32:20.802Z,78.19
2023-04-14T02:34:52.526Z,78.12
2023-04-14T02:37:22.439Z,78.88
2023-04-14T02:39:52.321Z,78.95
2023-04-14T02:42:19.291Z,78.28
2023-04-14T02:44:49.551Z,78.42
2023-04-14T02:47:26.093Z,77.46
2023-04-14T02:49:53.316Z,77.84
2023-04-14T02:52:20.438Z,77.84
2023-04-14T02:54:47.921Z,77.95
2023-04-14T02:57:14.906Z,77.59
2023-04-14T02:59:42.852Z,76.97
2023-04-14T03:02:10.939Z,77.15
2023-04-14T03:04:38.801Z,76.89
2023-04-14T03:07:06.969Z,76.61
2023-04-14T03:09:33.868Z,76.36
2023-04-14T03:12:00.822Z,75.35
2023-04-14T03:14:27.624Z,75.48
2023-04-14T03:16:54.657Z,75.15
2023-04-14T03:19:25.006Z,74.70
2023-04-14T03:21:51.988Z,74.52
2023-04-14T03:24:24.757Z,74.15
2023-04-14T03:26:52.624Z,74.24
2023-04-14T03:29:21.341Z,74.59
2023-04-14T03:31:48.348Z,75.29
2023-04-14T03:34:15.858Z,75.84
2023-04-14T03:36:43.000Z,75.75
2023-04-14T03:39:11.918Z,76.08
2023-04-14T03:41:39.799Z,76.45
2023-04-14T03:44:06.766Z,76.69
2023-04-14T03:46:33.593Z,76.71
2023-04-14T03:49:03.371Z,76.61
2023-04-14T03:51:30.227Z,76.85
2023-04-14T03:53:58.103Z,76.70
2023-04-14T03:56:25.459Z,76.83
2023-04-14T03:58:54.926Z,76.38
2023-04-14T04:01:26.057Z,76.52
2023-04-14T04:03:56.780Z,76.43
2023-04-14T04:06:23.738Z,75.55
2023-04-14T04:08:50.659Z,76.05
2023-04-14T04:11:19.109Z,76.45
2023-04-14T04:13:47.706Z,76.04
2023-04-14T04:16:14.661Z,76.04
2023-04-14T04:18:46.777Z,76.02
2023-04-14T04:21:15.117Z,76.00
2023-04-14T04:23:42.192Z,76.03
2023-04-14T04:26:09.111Z,75.94
2023-04-14T04:28:36.851Z,76.18
2023-04-14T04:31:05.151Z,76.02
2023-04-14T04:33:32.095Z,75.96
2023-04-14T04:35:58.956Z,76.14
2023-04-14T04:38:26.048Z,76.07
2023-04-14T04:40:52.882Z,75.78
2023-04-14T04:43:19.760Z,75.64
2023-04-14T04:45:52.383Z,75.41
2023-04-14T04:48:19.437Z,75.67
2023-04-14T04:50:46.501Z,75.40
2023-04-14T04:53:14.108Z,75.33
2023-04-14T04:55:42.448Z,75.13
2023-04-14T04:58:09.737Z,74.64
2023-04-14T05:00:36.590Z,74.66
2023-04-14T05:03:04.468Z,74.91
2023-04-14T05:05:36.725Z,74.20
2023-04-14T05:08:03.911Z,74.14
2023-04-14T05:10:31.057Z,73.77
2023-04-14T05:12:58.059Z,73.55
2023-04-14T05:15:25.124Z,72.67
2023-04-14T05:17:52.076Z,72.08
2023-04-14T05:20:19.157Z,71.90
2023-04-14T05:22:46.084Z,71.34
2023-04-14T05:25:12.966Z,70.79
2023-04-14T05:27:39.804Z,70.58
2023-04-14T05:30:08.125Z,68.68
2023-04-14T05:32:34.992Z,67.65
2023-04-14T05:35:02.726Z,66.99
2023-04-14T05:37:30.199Z,65.35
2023-04-14T05:39:57.066Z,65.47
2023-04-14T05:42:24.134Z,65.26
2023-04-14T05:44:51.121Z,64.63
2023-04-14T05:47:18.058Z,64.07
2023-04-14T05:49:45.350Z,64.37
2023-04-14T05:52:12.539Z,63.87
2023-04-14T05:54:40.900Z,63.40
2023-04-14T05:57:09.771Z,62.07
2023-04-14T05:59:36.961Z,61.50
2023-04-14T06:02:07.605Z,59.60
2023-04-14T06:04:35.293Z,55.82
2023-04-14T06:07:03.204Z,53.95
2023-04-14T06:09:30.131Z,52.29
2023-04-14T06:11:57.702Z,45.58
2023-04-14T06:14:24.666Z,38.78
2023-04-14T06:16:51.633Z,38.68
2023-04-14T06:19:19.509Z,39.66
2023-04-14T06:21:47.292Z,40.33
2023-04-14T06:24:14.339Z,42.04
2023-04-14T06:26:41.341Z,41.84
2023-04-14T06:29:08.336Z,40.58
2023-04-14T06:31:36.157Z,40.81
2023-04-14T06:34:03.096Z,39.62
2023-04-14T06:36:30.036Z,39.43
2023-04-14T06:38:57.528Z,39.32
2023-04-14T06:41:25.044Z,39.15
2023-04-14T06:43:51.901Z,39.06
2023-04-14T06:46:19.300Z,40.88
2023-04-14T06:48:46.330Z,41.62
2023-04-14T06:51:13.915Z,42.16
2023-04-14T06:53:40.994Z,43.17
2023-04-14T06:56:08.202Z,42.87
2023-04-14T06:58:35.308Z,41.57
2023-04-14T07:01:03.257Z,39.15
2023-04-14T07:03:31.546Z,37.07
2023-04-14T07:06:10.432Z,35.48
2023-04-14T07:08:38.011Z,34.70
2023-04-14T07:11:06.266Z,34.96
2023-04-14T07:13:33.915Z,33.66
2023-04-14T07:16:02.431Z,32.17
2023-04-14T07:18:33.055Z,29.70
2023-04-14T07:21:00.375Z,28.33
2023-04-14T07:23:27.538Z,26.78
2023-04-14T07:25:55.703Z,26.12
2023-04-14T07:28:23.288Z,26.02
2023-04-14T07:30:51.020Z,25.81
2023-04-14T07:33:22.576Z,24.45
2023-04-14T07:36:01.428Z,24.17
2023-04-14T07:38:29.731Z,23.32
2023-04-14T07:40:56.569Z,22.91
2023-04-14T07:43:24.096Z,23.00
2023-04-14T07:45:52.808Z,22.75
2023-04-14T07:48:21.803Z,21.82
2023-04-14T07:50:50.241Z,20.91
2023-04-14T07:53:17.175Z,20.12
2023-04-14T07:55:44.064Z,19.90
2023-04-14T07:58:15.432Z,20.78
2023-04-14T08:00:42.976Z,20.23
2023-04-14T08:03:10.199Z,20.32
2023-04-14T08:05:38.156Z,19.59
2023-04-14T08:08:05.114Z,18.32
2023-04-14T08:10:32.205Z,17.64
2023-04-14T08:13:00.573Z,17.73
2023-04-14T08:15:28.661Z,18.11
2023-04-14T08:17:56.246Z,18.66
2023-04-14T08:20:23.254Z,19.41
2023-04-14T08:22:50.277Z,19.47
2023-04-14T08:25:17.039Z,19.78
2023-04-14T08:27:44.566Z,19.04
2023-04-14T08:30:11.843Z,17.99
2023-04-14T08:32:38.787Z,17.97
2023-04-14T08:35:38.527Z,18.86
2023-04-14T08:37:52.834Z,18.35
2023-04-14T08:40:19.811Z,18.99
2023-04-14T08:42:46.684Z,19.34
2023-04-14T08:45:13.561Z,18.86
2023-04-14T08:47:41.067Z,18.89
2023-04-14T08:50:16.977Z,18.49
2023-04-14T08:52:44.210Z,18.80
2023-04-14T08:55:11.401Z,18.78
2023-04-14T08:57:38.354Z,18.79
2023-04-14T09:00:06.307Z,18.70
2023-04-14T09:02:33.920Z,18.75
2023-04-14T09:05:01.514Z,18.99
2023-04-14T09:07:30.151Z,20.77
2023-04-14T09:09:57.992Z,21.74
2023-04-14T09:12:26.607Z,22.82
2023-04-14T09:14:54.469Z,22.86
2023-04-14T09:17:21.380Z,23.48
2023-04-14T09:20:37.780Z,24.30
2023-04-14T09:22:36.108Z,24.62
2023-04-14T09:25:03.749Z,24.40
2023-04-14T09:27:30.684Z,25.65
2023-04-14T09:29:58.805Z,26.28
2023-04-14T09:32:26.109Z,26.78
2023-04-14T09:34:56.506Z,26.83
2023-04-14T09:37:26.112Z,26.89
2023-04-14T09:39:54.270Z,28.09
2023-04-14T09:42:21.576Z,28.40
2023-04-14T09:44:58.192Z,28.02
2023-04-14T09:47:26.430Z,28.11
2023-04-14T09:49:58.292Z,28.31
2023-04-14T09:52:45.264Z,27.48
2023-04-14T09:55:13.407Z,28.18
2023-04-14T09:57:49.821Z,27.04
2023-04-14T10:00:20.246Z,27.27
2023-04-14T10:02:51.372Z,27.30
2023-04-14T10:05:22.807Z,26.34
2023-04-14T10:07:50.515Z,26.15
2023-04-14T10:10:17.514Z,25.71
2023-04-14T10:12:44.814Z,24.62
2023-04-14T10:15:12.395Z,24.87
2023-04-14T10:17:39.732Z,23.40
2023-04-14T10:20:08.065Z,23.40
2023-04-14T10:22:35.486Z,23.07
2023-04-14T10:25:02.892Z,22.19
2023-04-14T10:27:31.659Z,22.38
2023-04-14T10:29:59.015Z,22.54
2023-04-14T10:32:28.528Z,23.06
2023-04-14T10:35:09.428Z,22.45
2023-04-14T10:37:37.235Z,22.92
2023-04-14T10:40:07.382Z,23.20
2023-04-14T10:43:03.724Z,23.70
2023-04-14T10:45:30.776Z,22.92
2023-04-14T10:47:57.655Z,24.67
2023-04-14T10:50:25.813Z,24.62
2023-04-14T10:52:56.314Z,23.79
2023-04-14T10:55:26.929Z,23.16
2023-04-14T10:58:03.448Z,24.39
2023-04-14T11:00:32.142Z,22.17
2023-04-14T11:03:03.986Z,24.30
2023-04-14T11:05:34.631Z,23.44
2023-04-14T11:08:03.224Z,23.30
2023-04-14T11:10:33.445Z,24.00
2023-04-14T11:13:05.008Z,23.83
2023-04-14T11:15:48.201Z,24.73
2023-04-14T11:18:17.381Z,24.07
2023-04-14T11:20:44.558Z,24.68
2023-04-14T11:23:13.742Z,25.78
2023-04-14T11:25:40.641Z,25.95
2023-04-14T11:28:08.176Z,25.83
2023-04-14T11:30:35.077Z,24.95
2023-04-14T11:33:02.227Z,24.51
2023-04-14T11:35:30.198Z,24.25
2023-04-14T11:37:58.234Z,23.32
2023-04-14T11:40:26.653Z,24.09
2023-04-14T11:42:55.705Z,25.33
2023-04-14T11:45:23.445Z,26.07
2023-04-14T11:47:50.317Z,26.38
2023-04-14T11:50:17.243Z,24.86
2023-04-14T11:52:47.240Z,27.84
2023-04-14T11:55:15.234Z,30.35
2023-04-14T11:57:51.257Z,29.21
2023-04-14T12:00:18.341Z,30.27
2023-04-14T12:02:45.830Z,29.44
2023-04-14T12:05:14.921Z,29.81
2023-04-14T12:07:45.938Z,29.54
2023-04-14T12:10:13.643Z,29.09
2023-04-14T12:12:41.407Z,28.49
2023-04-14T12:15:11.949Z,29.07
2023-04-14T12:17:42.245Z,28.62
2023-04-14T12:20:16.510Z,28.83
2023-04-14T12:22:43.598Z,29.42
2023-04-14T12:25:12.746Z,29.00
2023-04-14T12:27:42.050Z,27.68
2023-04-14T12:30:13.870Z,28.31
2023-04-14T12:32:41.097Z,27.38
2023-04-14T12:35:08.995Z,26.83
2023-04-14T12:37:36.505Z,26.62
2023-04-14T12:40:06.829Z,26.19
2023-04-14T12:42:52.316Z,28.78
2023-04-14T12:45:19.181Z,27.96
2023-04-14T12:47:53.656Z,26.19
2023-04-14T12:50:33.068Z,26.37
2023-04-14T12:53:01.605Z,25.20
2023-04-14T12:55:29.873Z,24.74
2023-04-14T12:57:58.822Z,25.50
2023-04-14T13:00:27.253Z,23.83
2023-04-14T13:02:55.973Z,23.88
2023-04-14T13:05:23.420Z,24.26
2023-04-14T13:07:50.345Z,23.01
2023-04-14T13:10:17.370Z,22.19
2023-04-14T13:12:44.316Z,22.97
2023-04-14T13:15:32.578Z,22.96
2023-04-14T13:17:59.199Z,22.22
2023-04-14T13:20:26.302Z,23.15
2023-04-14T13:22:53.148Z,22.69
2023-04-14T13:25:19.977Z,21.75
2023-04-14T13:27:47.046Z,21.05
2023-04-14T13:30:13.905Z,21.45
2023-04-14T13:32:40.846Z,21.68
2023-04-14T13:35:08.100Z,21.78
2023-04-14T13:37:35.423Z,23.04
2023-04-14T13:40:02.417Z,23.71
2023-04-14T13:42:29.278Z,24.05
2023-04-14T13:44:56.849Z,24.94
2023-04-14T13:47:24.860Z,23.43
2023-04-14T13:49:51.779Z,23.87
2023-04-14T13:52:18.690Z,24.42
2023-04-14T13:54:45.634Z,24.27
2023-04-14T13:57:12.893Z,25.75
2023-04-14T13:59:39.883Z,23.62
2023-04-14T14:02:07.081Z,23.43
2023-04-14T14:04:37.647Z,23.53
2023-04-14T14:07:04.943Z,23.19
2023-04-14T14:09:31.859Z,22.87
2023-04-14T14:11:58.773Z,23.61
2023-04-14T14:14:25.707Z,24.65
2023-04-14T14:16:52.719Z,25.28
2023-04-14T14:19:19.555Z,23.30
2023-04-14T14:21:46.355Z,22.02
2023-04-14T14:24:13.328Z,21.89
2023-04-14T14:26:40.204Z,22.57
2023-04-14T14:29:07.073Z,22.68
2023-04-14T14:31:34.906Z,22.27
2023-04-14T14:34:02.106Z,22.67
2023-04-14T14:36:30.178Z,23.48
2023-04-14T14:38:57.193Z,22.94
2023-04-14T14:41:24.567Z,23.23
2023-04-14T14:43:51.474Z,23.55
2023-04-14T14:46:18.491Z,24.17
2023-04-14T14:48:45.522Z,23.13
2023-04-14T14:51:13.309Z,22.68
2023-04-14T14:53:40.641Z,22.01
2023-04-14T14:56:07.647Z,22.17
2023-04-14T14:58:34.441Z,23.01
2023-04-14T15:01:01.565Z,23.67
2023-04-14T15:03:29.833Z,23.94
2023-04-14T15:05:56.875Z,23.91
2023-04-14T15:08:24.195Z,23.74
2023-04-14T15:10:52.035Z,22.85
2023-04-14T15:13:18.955Z,23.18
2023-04-14T15:15:45.948Z,23.80
2023-04-14T15:18:12.810Z,24.05
2023-04-14T15:20:41.407Z,23.67
2023-04-14T15:23:08.688Z,24.22
2023-04-14T15:25:35.854Z,23.94
2023-04-14T15:28:02.686Z,24.36
2023-04-14T15:30:29.748Z,24.89
2023-04-14T15:32:58.354Z,24.88
2023-04-14T15:35:26.417Z,25.61
2023-04-14T15:37:53.338Z,25.33
2023-04-14T15:40:20.607Z,24.58
2023-04-14T15:42:47.561Z,25.71
2023-04-14T15:45:14.489Z,25.81
2023-04-14T15:47:41.470Z,25.33
2023-04-14T15:50:09.915Z,25.53
2023-04-14T15:52:39.771Z,25.15
2023-04-14T15:55:07.597Z,24.66
2023-04-14T15:57:34.437Z,25.41
2023-04-14T16:00:04.477Z,26.22
2023-04-14T16:02:36.077Z,26.94
2023-04-14T16:05:05.348Z,27.50
2023-04-14T16:07:34.966Z,27.18
2023-04-14T16:10:01.730Z,27.15
2023-04-14T16:12:28.561Z,27.24
2023-04-14T16:14:55.650Z,26.76
2023-04-14T16:17:24.098Z,26.63
2023-04-14T16:19:54.504Z,26.82
2023-04-14T16:22:21.767Z,26.54
2023-04-14T16:24:48.706Z,26.95
2023-04-14T16:27:16.491Z,28.18
2023-04-14T16:29:43.349Z,28.02
2023-04-14T16:32:10.380Z,28.46
2023-04-14T16:34:37.337Z,28.67
2023-04-14T16:37:04.393Z,28.18
2023-04-14T16:39:31.879Z,27.72
2023-04-14T16:41:58.831Z,28.21
2023-04-14T16:44:26.024Z,28.34
2023-04-14T16:46:53.576Z,28.67
2023-04-14T16:49:21.001Z,29.34
2023-04-14T16:51:48.006Z,29.03
2023-04-14T16:54:15.026Z,28.97
2023-04-14T16:56:42.478Z,29.51
2023-04-14T16:59:10.288Z,28.58
2023-04-14T17:01:37.259Z,29.27
2023-04-14T17:04:04.687Z,30.05
2023-04-14T17:06:32.234Z,29.59
2023-04-14T17:09:01.035Z,30.08
2023-04-14T17:11:28.061Z,30.32
2023-04-14T17:13:58.090Z,30.83
2023-04-14T17:16:25.208Z,31.39
2023-04-14T17:18:52.149Z,31.32
2023-04-14T17:21:19.826Z,33.37
2023-04-14T17:23:46.877Z,34.05
2023-04-14T17:26:16.400Z,34.26
2023-04-14T17:28:44.216Z,34.01
2023-04-14T17:31:14.835Z,33.63
2023-04-14T17:33:43.312Z,33.88
2023-04-14T17:36:12.989Z,33.93
2023-04-14T17:38:40.789Z,35.05
2023-04-14T17:41:09.496Z,36.49
2023-04-14T17:43:38.560Z,37.39
2023-04-14T17:46:05.800Z,37.47
2023-04-14T17:48:33.658Z,37.56
2023-04-14T17:51:01.804Z,37.62
2023-04-14T17:53:28.679Z,37.55
2023-04-14T17:55:56.304Z,37.37
2023-04-14T17:58:27.387Z,36.97
2023-04-14T18:00:54.348Z,36.28
2023-04-14T18:03:21.533Z,36.84
2023-04-14T18:05:48.708Z,36.83
2023-04-14T18:08:16.512Z,37.53
2023-04-14T18:10:45.643Z,37.41
2023-04-14T18:13:13.162Z,37.99
2023-04-14T18:15:41.919Z,37.86
2023-04-14T18:18:09.430Z,37.38
2023-04-14T18:20:36.527Z,37.67
2023-04-14T18:23:03.561Z,37.90
2023-04-14T18:28:03.958Z,38.19
2023-04-14T18:30:31.629Z,38.18
2023-04-14T18:32:59.052Z,38.12
2023-04-14T18:35:26.739Z,38.19
2023-04-14T18:37:53.851Z,38.08
2023-04-14T18:40:21.478Z,37.60
2023-04-14T18:42:49.179Z,37.67
2023-04-14T18:45:16.215Z,37.72
2023-04-14T18:47:43.321Z,38.15
2023-04-14T18:50:11.351Z,37.77
2023-04-14T18:52:38.238Z,37.56
2023-04-14T18:55:05.844Z,38.09
2023-04-14T18:57:32.779Z,38.18
2023-04-14T18:59:59.741Z,38.30
2023-04-14T19:02:26.782Z,38.20
2023-04-14T19:04:53.933Z,38.03
2023-04-14T19:07:21.255Z,38.80
2023-04-14T19:09:48.342Z,39.53
2023-04-14T19:12:25.376Z,39.68
2023-04-14T19:14:54.851Z,38.37
2023-04-14T19:17:22.408Z,38.19
2023-04-14T19:19:50.417Z,38.52
2023-04-14T19:22:17.377Z,38.55
2023-04-14T19:24:44.291Z,38.60
2023-04-14T19:27:11.180Z,38.70
2023-04-14T19:29:38.101Z,39.69
2023-04-14T19:32:05.666Z,37.62
2023-04-14T19:34:32.615Z,37.54
2023-04-14T19:36:59.542Z,37.58
2023-04-14T19:39:26.552Z,37.11
2023-04-14T19:41:53.360Z,36.89
2023-04-14T19:44:20.531Z,38.09
2023-04-14T19:46:48.437Z,38.88
2023-04-14T19:49:15.564Z,38.89
2023-04-14T19:51:43.267Z,38.23
2023-04-14T19:54:10.282Z,38.00
2023-04-14T19:56:38.029Z,37.91
2023-04-14T19:59:05.622Z,38.16
2023-04-14T20:01:32.577Z,37.78
2023-04-14T20:04:05.274Z,37.41
2023-04-14T20:06:39.621Z,38.45
2023-04-14T20:09:06.706Z,39.50
2023-04-14T20:11:33.586Z,41.82
2023-04-14T20:14:00.551Z,42.40
2023-04-14T20:16:27.575Z,42.48
2023-04-14T20:18:54.862Z,43.70
2023-04-14T20:21:21.928Z,43.85
2023-04-14T20:23:48.861Z,44.54
2023-04-14T20:26:16.660Z,44.56
2023-04-14T20:28:44.272Z,44.92
2023-04-14T20:31:12.063Z,45.87
2023-04-14T20:33:39.304Z,46.68
2023-04-14T20:36:07.392Z,46.71
2023-04-14T20:38:34.809Z,46.98
2023-04-14T20:41:01.699Z,47.14
2023-04-14T20:43:33.943Z,47.24
2023-04-14T20:46:01.490Z,46.96
2023-04-14T20:48:28.477Z,46.78
2023-04-14T20:50:55.524Z,46.70
2023-04-14T20:53:23.097Z,46.88
2023-04-14T20:55:51.254Z,47.00
2023-04-14T20:58:18.787Z,48.89
2023-04-14T21:00:45.725Z,49.59
2023-04-14T21:03:12.944Z,50.20
2023-04-14T21:05:40.937Z,50.07
2023-04-14T21:08:08.470Z,49.42
2023-04-14T21:10:35.958Z,49.39
2023-04-14T21:15:30.473Z,49.43
2023-04-14T21:16:09.876Z,49.29
2023-04-14T21:18:37.199Z,49.74
2023-04-14T21:21:05.314Z,49.32
2023-04-14T21:23:32.449Z,49.78
2023-04-14T21:26:00.343Z,49.91
2023-04-14T21:28:27.508Z,50.01
2023-04-14T21:31:00.763Z,49.51
2023-04-14T21:33:28.569Z,49.21
2023-04-14T21:35:55.942Z,49.26
2023-04-14T21:38:23.729Z,49.13
2023-04-14T21:40:51.092Z,49.19
2023-04-14T21:43:17.971Z,50.24
2023-04-14T21:45:45.140Z,50.80
2023-04-14T21:48:12.728Z,50.65
2023-04-14T21:50:40.271Z,50.27
2023-04-14T21:53:07.135Z,50.59
2023-04-14T21:55:33.936Z,50.85
2023-04-14T21:58:01.672Z,50.71
2023-04-14T22:00:28.563Z,51.11
2023-04-14T22:02:55.573Z,51.25
2023-04-14T22:05:24.611Z,51.38
2023-04-14T22:07:51.783Z,51.33
2023-04-14T22:10:18.592Z,50.74
2023-04-14T22:12:45.882Z,50.71
2023-04-14T22:15:12.901Z,50.60
2023-04-14T22:17:41.583Z,50.31
2023-04-14T22:20:09.880Z,50.39
2023-04-14T22:22:37.013Z,50.65
2023-04-14T22:25:04.455Z,50.49
2023-04-14T22:27:32.266Z,51.43
2023-04-14T22:29:59.102Z,51.36
2023-04-14T22:32:26.578Z,52.05
2023-04-14T22:34:53.454Z,52.04
2023-04-14T22:37:20.287Z,51.47
2023-04-14T22:39:47.204Z,51.50
2023-04-14T22:42:14.603Z,51.25
2023-04-14T22:44:41.479Z,51.26
2023-04-14T22:47:08.847Z,51.66
2023-04-14T22:49:35.790Z,51.88
2023-04-14T22:52:03.072Z,51.90
2023-04-14T22:54:30.085Z,52.56
2023-04-14T22:56:57.344Z,52.49
2023-04-14T22:59:26.318Z,52.78
2023-04-14T23:01:54.185Z,53.83
2023-04-14T23:04:21.643Z,54.10
2023-04-14T23:06:48.681Z,54.32
2023-04-14T23:09:16.347Z,54.51
2023-04-14T23:11:43.436Z,54.89
2023-04-14T23:14:10.917Z,54.83
2023-04-14T23:16:37.815Z,55.26
2023-04-14T23:19:04.762Z,56.14
2023-04-14T23:21:32.032Z,56.33
2023-04-14T23:23:58.895Z,56.33
2023-04-14T23:26:25.793Z,56.26
2023-04-14T23:28:53.210Z,56.20
2023-04-14T23:31:20.120Z,56.64
2023-04-14T23:33:49.840Z,56.37
2023-04-14T23:36:16.881Z,56.32
2023-04-14T23:38:43.968Z,56.52
2023-04-14T23:41:11.570Z,56.85
2023-04-14T23:43:39.178Z,56.94
2023-04-14T23:46:06.074Z,56.14
2023-04-14T23:48:33.042Z,55.91
2023-04-14T23:51:15.116Z,56.07
2023-04-14T23:53:46.326Z,56.08
2023-04-14T23:56:13.167Z,56.69
2023-04-14T23:58:40.218Z,56.35
